createdAt,value
2023-02-01T00:00:26.566Z,77.19
2023-02-01T00:01:28.144Z,76.76
2023-02-01T00:02:29.850Z,76.14
2023-02-01T00:03:31.434Z,76.47
2023-02-01T00:04:33.042Z,76.51
2023-02-01T00:05:34.573Z,76.18
2023-02-01T00:06:36.181Z,76.37
2023-02-01T00:07:38.505Z,75.79
2023-02-01T00:08:40.096Z,75.78
2023-02-01T00:09:41.613Z,76.04
2023-02-01T00:10:43.126Z,75.88
2023-02-01T00:11:44.898Z,76.39
2023-02-01T00:12:46.514Z,76.01
2023-02-01T00:13:49.461Z,76.08
2023-02-01T00:14:50.970Z,76.11
2023-02-01T00:15:52.549Z,76.73
2023-02-01T00:16:54.167Z,76.13
2023-02-01T00:17:56.256Z,76.30
2023-02-01T00:19:06.309Z,76.24
2023-02-01T00:20:08.959Z,76.60
2023-02-01T00:21:14.591Z,76.45
2023-02-01T00:22:16.145Z,76.48
2023-02-01T00:23:17.688Z,75.95
2023-02-01T00:24:19.267Z,76.05
2023-02-01T00:25:20.874Z,76.24
2023-02-01T00:26:31.435Z,76.01
2023-02-01T00:27:33.058Z,75.34
2023-02-01T00:28:34.823Z,76.42
2023-02-01T00:29:36.385Z,75.95
2023-02-01T00:30:37.947Z,76.00
2023-02-01T00:31:39.885Z,75.78
2023-02-01T00:32:41.462Z,75.71
2023-02-01T00:33:43.089Z,75.56
2023-02-01T00:34:44.696Z,75.39
2023-02-01T00:35:46.276Z,75.78
2023-02-01T00:36:49.057Z,75.23
2023-02-01T00:37:50.598Z,74.91
2023-02-01T00:38:52.126Z,74.73
2023-02-01T00:39:55.888Z,74.59
2023-02-01T00:41:07.949Z,74.65
2023-02-01T00:42:09.513Z,74.67
2023-02-01T00:43:11.027Z,73.93
2023-02-01T00:44:12.610Z,74.02
2023-02-01T00:45:14.166Z,74.42
2023-02-01T00:46:17.728Z,74.10
2023-02-01T00:47:20.939Z,73.97
2023-02-01T00:48:22.458Z,72.96
2023-02-01T00:49:24.003Z,72.90
2023-02-01T00:50:25.522Z,73.13
2023-02-01T00:51:29.318Z,72.47
2023-02-01T00:52:30.870Z,73.42
2023-02-01T00:53:32.961Z,73.54
2023-02-01T00:54:34.910Z,72.93
2023-02-01T00:55:36.457Z,73.62
2023-02-01T00:56:37.964Z,72.84
2023-02-01T00:57:39.497Z,72.76
2023-02-01T00:58:45.179Z,72.98
2023-02-01T00:59:47.346Z,73.72
2023-02-01T01:00:50.482Z,72.97
2023-02-01T01:01:52.196Z,73.65
2023-02-01T01:02:54.330Z,73.50
2023-02-01T01:04:00.667Z,73.98
2023-02-01T01:05:02.392Z,74.49
2023-02-01T01:06:10.819Z,74.57
2023-02-01T01:07:12.386Z,74.21
2023-02-01T01:08:14.770Z,74.58
2023-02-01T01:09:16.277Z,74.83
2023-02-01T01:10:17.997Z,74.71
2023-02-01T01:11:22.602Z,74.52
2023-02-01T01:12:24.200Z,73.90
2023-02-01T01:13:26.012Z,73.37
2023-02-01T01:14:27.600Z,73.90
2023-02-01T01:15:29.212Z,73.60
2023-02-01T01:16:32.068Z,73.13
2023-02-01T01:17:33.642Z,73.11
2023-02-01T01:18:36.201Z,72.72
2023-02-01T01:19:37.835Z,72.80
2023-02-01T01:20:41.184Z,72.55
2023-02-01T01:21:42.697Z,72.81
2023-02-01T01:22:44.234Z,72.98
2023-02-01T01:23:46.829Z,72.64
2023-02-01T01:24:48.359Z,72.68
2023-02-01T01:25:50.352Z,72.77
2023-02-01T01:26:52.004Z,72.61
2023-02-01T01:27:53.617Z,72.41
2023-02-01T01:29:00.036Z,72.70
2023-02-01T01:30:02.266Z,72.24
2023-02-01T01:31:04.052Z,72.41
2023-02-01T01:32:05.710Z,72.18
2023-02-01T01:33:07.499Z,71.72
2023-02-01T01:34:09.634Z,71.89
2023-02-01T01:35:11.808Z,72.01
2023-02-01T01:36:13.729Z,72.04
2023-02-01T01:37:15.303Z,72.37
2023-02-01T01:38:16.861Z,72.38
2023-02-01T01:39:18.431Z,72.29
2023-02-01T01:40:20.278Z,71.95
2023-02-01T01:41:24.993Z,72.21
2023-02-01T01:42:26.535Z,72.17
2023-02-01T01:43:56.287Z,72.42
2023-02-01T01:45:07.776Z,72.72
2023-02-01T01:46:09.322Z,72.66
2023-02-01T01:47:11.045Z,73.03
2023-02-01T01:48:15.827Z,72.84
2023-02-01T01:49:26.461Z,73.26
2023-02-01T01:50:52.934Z,73.63
2023-02-01T01:51:59.877Z,73.39
2023-02-01T01:53:04.369Z,73.95
2023-02-01T01:54:18.305Z,74.01
2023-02-01T01:55:21.421Z,74.34
2023-02-01T01:56:23.477Z,74.63
2023-02-01T01:57:27.217Z,74.48
2023-02-01T01:58:32.951Z,74.70
2023-02-01T01:59:38.446Z,74.50
2023-02-01T02:00:40.291Z,74.81
2023-02-01T02:01:42.235Z,74.92
2023-02-01T02:02:47.637Z,75.67
2023-02-01T02:03:49.619Z,75.45
2023-02-01T02:04:51.399Z,75.56
2023-02-01T02:05:56.325Z,75.65
2023-02-01T02:07:03.905Z,75.83
2023-02-01T02:08:05.542Z,75.54
2023-02-01T02:09:07.737Z,75.59
2023-02-01T02:10:14.386Z,75.98
2023-02-01T02:11:17.855Z,75.67
2023-02-01T02:12:19.630Z,76.56
2023-02-01T02:13:21.320Z,77.24
2023-02-01T02:14:24.901Z,76.98
2023-02-01T02:15:26.840Z,76.70
2023-02-01T02:16:45.661Z,76.43
2023-02-01T02:18:16.531Z,75.98
2023-02-01T02:19:36.508Z,76.35
2023-02-01T02:20:55.069Z,76.32
2023-02-01T02:22:41.415Z,76.31
2023-02-01T02:23:54.959Z,76.50
2023-02-01T02:25:15.193Z,77.14
2023-02-01T02:26:36.129Z,77.12
2023-02-01T02:27:40.366Z,76.82
2023-02-01T02:29:18.994Z,76.73
2023-02-01T02:30:42.570Z,76.87
2023-02-01T02:32:38.353Z,76.27
2023-02-01T02:33:59.173Z,76.75
2023-02-01T02:35:19.218Z,76.05
2023-02-01T02:36:20.734Z,75.95
2023-02-01T02:37:50.163Z,76.15
2023-02-01T02:39:09.302Z,75.76
2023-02-01T02:40:23.119Z,75.84
2023-02-01T02:42:07.655Z,75.83
2023-02-01T02:43:41.105Z,76.46
2023-02-01T02:45:20.770Z,76.96
2023-02-01T02:46:46.013Z,76.48
2023-02-01T02:48:10.535Z,76.56
2023-02-01T02:49:43.094Z,77.03
2023-02-01T02:51:06.528Z,76.82
2023-02-01T02:52:34.928Z,77.21
2023-02-01T02:54:08.553Z,77.17
2023-02-01T02:55:11.309Z,77.29
2023-02-01T02:56:32.506Z,77.37
2023-02-01T02:57:57.374Z,77.31
2023-02-01T02:59:18.646Z,77.42
2023-02-01T03:00:43.252Z,77.27
2023-02-01T03:02:03.787Z,77.96
2023-02-01T03:03:25.050Z,77.32
2023-02-01T03:04:26.694Z,78.38
2023-02-01T03:05:37.709Z,78.24
2023-02-01T03:06:39.881Z,78.83
2023-02-01T03:08:26.571Z,79.83
2023-02-01T03:09:35.177Z,80.87
2023-02-01T03:10:53.111Z,81.12
2023-02-01T03:12:19.114Z,81.47
2023-02-01T03:13:43.254Z,81.86
2023-02-01T03:14:48.231Z,82.19
2023-02-01T03:15:54.863Z,81.75
2023-02-01T03:17:03.222Z,82.00
2023-02-01T03:18:14.113Z,81.85
2023-02-01T03:19:26.488Z,81.11
2023-02-01T03:20:30.471Z,81.11
2023-02-01T03:22:56.560Z,80.92
2023-02-01T03:24:03.423Z,81.01
2023-02-01T03:25:22.308Z,81.73
2023-02-01T03:26:27.100Z,82.46
2023-02-01T03:27:35.010Z,82.58
2023-02-01T03:28:40.237Z,82.45
2023-02-01T03:29:55.762Z,82.40
2023-02-01T03:30:57.743Z,83.04
2023-02-01T03:31:59.540Z,83.52
2023-02-01T03:33:05.913Z,84.70
2023-02-01T03:34:07.549Z,83.99
2023-02-01T03:35:09.308Z,84.35
2023-02-01T03:36:20.251Z,84.55
2023-02-01T03:37:27.136Z,84.59
2023-02-01T03:38:34.250Z,84.78
2023-02-01T03:39:39.996Z,85.13
2023-02-01T03:40:45.814Z,84.86
2023-02-01T03:42:00.154Z,85.55
2023-02-01T03:43:06.112Z,84.95
2023-02-01T03:44:16.585Z,84.56
2023-02-01T03:45:21.340Z,84.77
2023-02-01T03:46:39.976Z,84.74
2023-02-01T03:47:45.797Z,85.02
2023-02-01T03:48:49.585Z,85.08
2023-02-01T03:49:53.731Z,83.91
2023-02-01T03:51:00.477Z,83.29
2023-02-01T03:52:04.689Z,82.59
2023-02-01T03:53:14.402Z,82.14
2023-02-01T03:54:18.399Z,82.14
2023-02-01T03:55:24.878Z,81.24
2023-02-01T03:56:29.307Z,81.52
2023-02-01T03:57:35.854Z,80.75
2023-02-01T03:58:37.496Z,81.07
2023-02-01T03:59:43.128Z,80.66
2023-02-01T04:00:53.242Z,80.98
2023-02-01T04:01:54.783Z,81.28
2023-02-01T04:02:56.537Z,81.05
2023-02-01T04:03:59.090Z,81.51
2023-02-01T04:05:00.692Z,81.09
2023-02-01T04:06:02.233Z,80.66
2023-02-01T04:07:03.929Z,80.88
2023-02-01T04:08:06.214Z,80.50
2023-02-01T04:09:07.789Z,80.58
2023-02-01T04:10:10.641Z,80.03
2023-02-01T04:11:12.252Z,79.64
2023-02-01T04:12:13.890Z,80.25
2023-02-01T04:13:15.555Z,79.49
2023-02-01T04:14:17.117Z,79.28
2023-02-01T04:15:19.024Z,79.20
2023-02-01T04:16:20.614Z,79.38
2023-02-01T04:17:22.162Z,78.56
2023-02-01T04:18:23.923Z,78.10
2023-02-01T04:19:25.534Z,77.87
2023-02-01T04:20:27.184Z,77.19
2023-02-01T04:21:29.806Z,76.58
2023-02-01T04:22:31.583Z,76.86
2023-02-01T04:23:33.164Z,76.12
2023-02-01T04:24:34.685Z,76.43
2023-02-01T04:25:36.186Z,76.65
2023-02-01T04:26:37.798Z,76.48
2023-02-01T04:28:39.920Z,76.79
2023-02-01T04:29:42.375Z,76.99
2023-02-01T04:30:44.021Z,77.20
2023-02-01T04:31:45.727Z,77.76
2023-02-01T04:32:47.816Z,76.87
2023-02-01T04:33:49.352Z,76.83
2023-02-01T04:34:50.896Z,76.76
2023-02-01T04:35:52.523Z,76.58
2023-02-01T04:36:54.051Z,75.75
2023-02-01T04:37:55.573Z,75.13
2023-02-01T04:38:57.088Z,74.69
2023-02-01T04:39:58.687Z,74.18
2023-02-01T04:41:00.645Z,74.19
2023-02-01T04:42:02.204Z,74.18
2023-02-01T04:43:04.632Z,74.65
2023-02-01T04:44:06.459Z,74.48
2023-02-01T04:45:08.417Z,74.45
2023-02-01T04:46:10.096Z,74.00
2023-02-01T04:47:11.925Z,74.12
2023-02-01T04:48:13.447Z,74.18
2023-02-01T04:49:15.998Z,74.05
2023-02-01T04:50:17.565Z,73.78
2023-02-01T04:51:19.164Z,73.06
2023-02-01T04:52:20.709Z,73.41
2023-02-01T04:53:22.272Z,72.54
2023-02-01T04:54:23.793Z,73.05
2023-02-01T04:55:25.495Z,72.75
2023-02-01T04:56:27.111Z,72.66
2023-02-01T04:57:28.635Z,72.93
2023-02-01T04:58:30.246Z,72.92
2023-02-01T04:59:31.909Z,72.52
2023-02-01T05:00:33.685Z,72.19
2023-02-01T05:01:35.360Z,72.35
2023-02-01T05:02:36.965Z,71.66
2023-02-01T05:03:38.532Z,71.57
2023-02-01T05:04:40.215Z,71.42
2023-02-01T05:05:41.933Z,71.96
2023-02-01T05:06:43.465Z,71.58
2023-02-01T05:07:47.679Z,71.17
2023-02-01T05:08:49.528Z,70.87
2023-02-01T05:09:51.191Z,70.69
2023-02-01T05:10:52.787Z,70.53
2023-02-01T05:12:12.985Z,70.72
2023-02-01T05:13:33.207Z,70.31
2023-02-01T05:14:34.888Z,70.38
2023-02-01T05:15:36.455Z,69.93
2023-02-01T05:16:38.189Z,69.88
2023-02-01T05:17:41.295Z,69.69
2023-02-01T05:18:42.862Z,69.67
2023-02-01T05:19:44.571Z,68.95
2023-02-01T05:20:46.118Z,69.27
2023-02-01T05:21:47.650Z,69.37
2023-02-01T05:22:49.249Z,69.47
2023-02-01T05:24:09.517Z,68.69
2023-02-01T05:25:11.091Z,68.67
2023-02-01T05:26:12.641Z,68.87
2023-02-01T05:27:14.272Z,69.50
2023-02-01T05:28:15.846Z,69.12
2023-02-01T05:29:18.638Z,68.88
2023-02-01T05:30:20.708Z,68.78
2023-02-01T05:31:23.305Z,68.92
2023-02-01T05:32:25.127Z,68.68
2023-02-01T05:33:26.691Z,68.81
2023-02-01T05:34:28.333Z,68.92
2023-02-01T05:35:29.966Z,68.63
2023-02-01T05:36:31.978Z,68.53
2023-02-01T05:37:33.534Z,68.64
2023-02-01T05:38:35.195Z,68.29
2023-02-01T05:39:36.723Z,68.54
2023-02-01T05:40:38.495Z,68.25
2023-02-01T05:41:40.134Z,68.35
2023-02-01T05:42:41.644Z,68.44
2023-02-01T05:43:43.290Z,68.13
2023-02-01T05:44:44.852Z,68.13
2023-02-01T05:45:46.381Z,68.09
2023-02-01T05:46:50.077Z,68.69
2023-02-01T05:47:51.792Z,68.40
2023-02-01T05:48:53.444Z,68.35
2023-02-01T05:49:55.072Z,67.79
2023-02-01T05:50:56.791Z,68.26
2023-02-01T05:52:00.266Z,68.17
2023-02-01T05:53:02.122Z,68.07
2023-02-01T05:54:03.819Z,67.90
2023-02-01T05:55:05.953Z,67.61
2023-02-01T05:56:08.082Z,67.92
2023-02-01T05:57:09.598Z,68.08
2023-02-01T05:58:11.189Z,68.49
2023-02-01T05:59:12.959Z,68.69
2023-02-01T06:00:14.699Z,68.11
2023-02-01T06:01:16.305Z,68.14
2023-02-01T06:02:17.925Z,67.67
2023-02-01T06:03:20.010Z,67.90
2023-02-01T06:04:21.577Z,67.99
2023-02-01T06:05:23.447Z,68.05
2023-02-01T06:06:25.000Z,67.82
2023-02-01T06:07:29.331Z,67.25
2023-02-01T06:08:31.160Z,67.38
2023-02-01T06:09:32.758Z,67.52
2023-02-01T06:10:34.770Z,67.48
2023-02-01T06:11:36.336Z,67.15
2023-02-01T06:12:37.880Z,67.30
2023-02-01T06:13:39.715Z,67.14
2023-02-01T06:14:41.895Z,66.80
2023-02-01T06:15:45.084Z,66.83
2023-02-01T06:16:47.524Z,66.87
2023-02-01T06:17:49.124Z,67.09
2023-02-01T06:18:50.749Z,66.83
2023-02-01T06:19:52.334Z,67.33
2023-02-01T06:20:57.914Z,67.27
2023-02-01T06:21:59.436Z,66.69
2023-02-01T06:23:01.008Z,67.31
2023-02-01T06:24:02.641Z,67.06
2023-02-01T06:25:09.079Z,66.95
2023-02-01T06:26:10.640Z,66.85
2023-02-01T06:27:12.868Z,67.98
2023-02-01T06:28:14.398Z,66.95
2023-02-01T06:29:15.917Z,67.01
2023-02-01T06:30:17.887Z,67.05
2023-02-01T06:31:19.546Z,66.54
2023-02-01T06:32:21.120Z,66.00
2023-02-01T06:33:22.744Z,66.77
2023-02-01T06:34:24.635Z,65.92
2023-02-01T06:35:27.206Z,66.97
2023-02-01T06:36:28.704Z,66.96
2023-02-01T06:37:30.503Z,66.50
2023-02-01T06:38:32.557Z,66.53
2023-02-01T06:39:34.506Z,65.85
2023-02-01T06:40:36.557Z,66.62
2023-02-01T06:41:38.073Z,66.13
2023-02-01T06:42:39.717Z,66.36
2023-02-01T06:43:41.387Z,65.90
2023-02-01T06:44:43.039Z,65.89
2023-02-01T06:45:44.680Z,66.21
2023-02-01T06:46:46.266Z,66.43
2023-02-01T06:47:47.805Z,65.53
2023-02-01T06:48:50.347Z,65.91
2023-02-01T06:49:51.918Z,66.22
2023-02-01T06:50:53.562Z,66.10
2023-02-01T06:51:55.098Z,65.35
2023-02-01T06:52:56.678Z,64.99
2023-02-01T06:53:58.781Z,65.10
2023-02-01T06:55:01.805Z,65.36
2023-02-01T06:56:05.202Z,64.62
2023-02-01T06:57:07.620Z,65.07
2023-02-01T06:58:11.134Z,65.25
2023-02-01T06:59:16.508Z,65.01
2023-02-01T07:00:19.310Z,64.97
2023-02-01T07:01:21.251Z,64.54
2023-02-01T07:02:22.836Z,65.39
2023-02-01T07:03:24.829Z,64.85
2023-02-01T07:04:26.440Z,64.48
2023-02-01T07:05:27.998Z,65.35
2023-02-01T07:06:29.668Z,65.62
2023-02-01T07:07:31.181Z,65.11
2023-02-01T07:08:34.988Z,64.90
2023-02-01T07:09:36.553Z,64.83
2023-02-01T07:10:38.795Z,64.70
2023-02-01T07:11:44.131Z,65.01
2023-02-01T07:12:45.652Z,64.85
2023-02-01T07:13:47.272Z,65.20
2023-02-01T07:14:48.797Z,64.47
2023-02-01T07:15:50.315Z,65.13
2023-02-01T07:16:52.178Z,64.35
2023-02-01T07:17:56.476Z,63.87
2023-02-01T07:18:58.118Z,64.28
2023-02-01T07:20:00.839Z,64.22
2023-02-01T07:21:02.435Z,63.86
2023-02-01T07:22:04.026Z,63.73
2023-02-01T07:23:05.669Z,63.65
2023-02-01T07:24:07.525Z,63.56
2023-02-01T07:25:09.470Z,63.93
2023-02-01T07:26:14.046Z,64.04
2023-02-01T07:27:15.696Z,63.92
2023-02-01T07:28:17.744Z,63.12
2023-02-01T07:29:20.429Z,63.39
2023-02-01T07:30:22.254Z,62.90
2023-02-01T07:31:26.350Z,62.48
2023-02-01T07:32:27.968Z,64.06
2023-02-01T07:33:29.558Z,63.15
2023-02-01T07:34:31.900Z,62.69
2023-02-01T07:35:33.426Z,61.16
2023-02-01T07:36:35.490Z,61.01
2023-02-01T07:37:37.086Z,61.77
2023-02-01T07:38:38.811Z,61.16
2023-02-01T07:39:40.314Z,61.19
2023-02-01T07:40:42.814Z,61.52
2023-02-01T07:41:44.335Z,61.85
2023-02-01T07:42:45.879Z,61.03
2023-02-01T07:43:47.520Z,62.08
2023-02-01T07:44:49.064Z,61.89
2023-02-01T07:45:54.893Z,62.37
2023-02-01T07:46:56.527Z,62.16
2023-02-01T07:47:58.362Z,61.71
2023-02-01T07:49:00.229Z,61.94
2023-02-01T07:50:01.827Z,62.76
2023-02-01T07:51:10.540Z,61.87
2023-02-01T07:52:14.110Z,62.08
2023-02-01T07:53:15.817Z,62.87
2023-02-01T07:54:17.580Z,62.30
2023-02-01T07:55:19.142Z,63.03
2023-02-01T07:56:23.474Z,62.78
2023-02-01T07:57:25.055Z,62.03
2023-02-01T07:58:26.863Z,61.96
2023-02-01T07:59:28.437Z,62.59
2023-02-01T08:00:48.650Z,63.20
2023-02-01T08:01:50.404Z,61.86
2023-02-01T08:02:51.914Z,62.07
2023-02-01T08:03:56.179Z,62.76
2023-02-01T08:04:57.763Z,62.71
2023-02-01T08:05:59.422Z,61.81
2023-02-01T08:07:00.923Z,62.41
2023-02-01T08:08:02.446Z,62.66
2023-02-01T08:09:05.340Z,63.19
2023-02-01T08:10:11.715Z,62.88
2023-02-01T08:11:14.666Z,61.51
2023-02-01T08:13:36.344Z,61.99
2023-02-01T08:14:37.958Z,61.91
2023-02-01T08:15:39.497Z,62.17
2023-02-01T08:16:41.160Z,62.36
2023-02-01T08:17:52.670Z,61.89
2023-02-01T08:18:55.182Z,62.08
2023-02-01T08:19:56.767Z,62.34
2023-02-01T08:20:58.428Z,61.54
2023-02-01T08:22:00.326Z,61.01
2023-02-01T08:23:01.899Z,61.81
2023-02-01T08:24:09.821Z,60.95
2023-02-01T08:25:12.587Z,61.01
2023-02-01T08:26:21.792Z,61.41
2023-02-01T08:27:23.407Z,60.61
2023-02-01T08:28:24.992Z,61.17
2023-02-01T08:29:26.587Z,60.64
2023-02-01T08:30:28.607Z,61.47
2023-02-01T08:31:31.349Z,61.59
2023-02-01T08:32:34.406Z,61.42
2023-02-01T08:33:37.970Z,61.83
2023-02-01T08:34:39.617Z,61.53
2023-02-01T08:35:44.131Z,61.85
2023-02-01T08:36:45.912Z,60.96
2023-02-01T08:37:47.484Z,61.41
2023-02-01T08:38:49.212Z,61.42
2023-02-01T08:39:51.687Z,61.93
2023-02-01T08:40:53.205Z,61.61
2023-02-01T08:42:13.270Z,61.71
2023-02-01T08:43:15.373Z,61.60
2023-02-01T08:44:16.902Z,61.91
2023-02-01T08:45:20.931Z,62.23
2023-02-01T08:46:23.869Z,62.50
2023-02-01T08:47:25.560Z,61.37
2023-02-01T08:48:27.140Z,61.89
2023-02-01T08:49:28.639Z,61.41
2023-02-01T08:50:30.315Z,61.84
2023-02-01T08:51:31.929Z,61.61
2023-02-01T08:52:33.503Z,61.71
2023-02-01T08:53:35.517Z,62.67
2023-02-01T08:54:37.187Z,62.73
2023-02-01T08:55:38.743Z,62.43
2023-02-01T08:56:40.400Z,62.74
2023-02-01T08:57:42.964Z,62.76
2023-02-01T08:58:44.966Z,61.98
2023-02-01T08:59:46.559Z,61.90
2023-02-01T09:00:49.229Z,62.07
2023-02-01T09:01:50.746Z,62.50
2023-02-01T09:02:52.311Z,61.44
2023-02-01T09:03:53.859Z,61.79
2023-02-01T09:04:57.110Z,61.33
2023-02-01T09:06:06.885Z,62.48
2023-02-01T09:07:09.925Z,61.27
2023-02-01T09:08:16.067Z,60.08
2023-02-01T09:09:17.611Z,59.83
2023-02-01T09:10:33.485Z,59.42
2023-02-01T09:11:36.375Z,59.01
2023-02-01T09:12:38.769Z,58.31
2023-02-01T09:13:40.346Z,59.38
2023-02-01T09:14:42.464Z,58.68
2023-02-01T09:15:44.024Z,57.81
2023-02-01T09:16:45.537Z,58.14
2023-02-01T09:17:47.192Z,58.60
2023-02-01T09:18:56.732Z,58.33
2023-02-01T09:20:11.049Z,58.46
2023-02-01T09:21:12.615Z,59.67
2023-02-01T09:22:15.944Z,59.02
2023-02-01T09:23:17.574Z,59.38
2023-02-01T09:24:19.139Z,59.08
2023-02-01T09:25:20.796Z,58.87
2023-02-01T09:26:31.466Z,58.39
2023-02-01T09:27:34.187Z,59.19
2023-02-01T09:28:35.836Z,59.16
2023-02-01T09:29:37.414Z,59.71
2023-02-01T09:30:39.210Z,59.84
2023-02-01T09:31:44.123Z,59.27
2023-02-01T09:32:51.194Z,59.77
2023-02-01T09:33:52.756Z,58.66
2023-02-01T09:34:54.329Z,58.70
2023-02-01T09:36:05.236Z,58.45
2023-02-01T09:37:06.789Z,58.60
2023-02-01T09:38:08.413Z,57.96
2023-02-01T09:39:09.963Z,59.13
2023-02-01T09:40:16.287Z,58.62
2023-02-01T09:41:46.705Z,58.94
2023-02-01T09:43:04.432Z,58.16
2023-02-01T09:44:21.060Z,58.30
2023-02-01T09:45:40.834Z,58.75
2023-02-01T09:46:42.457Z,57.89
2023-02-01T09:48:02.900Z,56.85
2023-02-01T09:49:15.380Z,57.72
2023-02-01T09:50:22.495Z,57.00
2023-02-01T09:51:30.805Z,57.26
2023-02-01T09:52:39.495Z,56.84
2023-02-01T09:53:49.191Z,57.62
2023-02-01T09:54:59.514Z,57.23
2023-02-01T09:56:07.505Z,57.48
2023-02-01T09:57:20.571Z,57.53
2023-02-01T09:58:34.247Z,56.85
2023-02-01T09:59:39.242Z,56.57
2023-02-01T10:00:44.915Z,57.28
2023-02-01T10:01:46.614Z,57.78
2023-02-01T10:02:48.305Z,57.09
2023-02-01T10:03:51.131Z,57.39
2023-02-01T10:04:56.385Z,57.08
2023-02-01T10:06:00.808Z,57.68
2023-02-01T10:07:14.589Z,57.19
2023-02-01T10:08:41.053Z,56.12
2023-02-01T10:09:53.403Z,56.14
2023-02-01T10:11:05.996Z,56.99
2023-02-01T10:12:32.288Z,56.29
2023-02-01T10:13:58.766Z,54.51
2023-02-01T10:15:18.077Z,55.17
2023-02-01T10:16:25.724Z,54.66
2023-02-01T10:17:47.222Z,55.70
2023-02-01T10:19:21.216Z,54.79
2023-02-01T10:20:31.643Z,53.70
2023-02-01T10:21:48.679Z,54.34
2023-02-01T10:23:22.713Z,53.08
2023-02-01T10:24:23.291Z,52.57
2023-02-01T10:25:33.839Z,52.77
2023-02-01T10:26:40.539Z,51.49
2023-02-01T10:27:42.678Z,50.83
2023-02-01T10:28:49.301Z,50.93
2023-02-01T10:29:56.665Z,50.98
2023-02-01T10:30:59.954Z,50.65
2023-02-01T10:32:02.834Z,51.00
2023-02-01T10:33:31.164Z,51.46
2023-02-01T10:34:35.949Z,50.41
2023-02-01T10:35:37.636Z,50.75
2023-02-01T10:36:51.380Z,50.97
2023-02-01T10:37:53.174Z,50.41
2023-02-01T10:38:54.943Z,51.47
2023-02-01T10:39:58.637Z,51.40
2023-02-01T10:41:12.048Z,51.81
2023-02-01T10:42:13.595Z,52.02
2023-02-01T10:43:15.251Z,51.55
2023-02-01T10:44:24.720Z,51.21
2023-02-01T10:45:29.526Z,52.22
2023-02-01T10:46:32.810Z,51.17
2023-02-01T10:47:34.433Z,52.06
2023-02-01T10:48:36.664Z,51.63
2023-02-01T10:50:19.827Z,51.21
2023-02-01T10:51:25.958Z,51.62
2023-02-01T10:53:13.986Z,51.92
2023-02-01T10:54:21.492Z,52.76
2023-02-01T10:55:50.634Z,52.99
2023-02-01T10:56:54.382Z,53.06
2023-02-01T10:57:58.769Z,52.11
2023-02-01T10:59:04.164Z,52.91
2023-02-01T11:00:20.921Z,51.76
2023-02-01T11:01:34.725Z,52.50
2023-02-01T11:02:36.791Z,52.03
2023-02-01T11:03:50.560Z,52.47
2023-02-01T11:05:03.219Z,52.34
2023-02-01T11:06:12.758Z,52.97
2023-02-01T11:07:25.572Z,52.99
2023-02-01T11:08:27.389Z,52.88
2023-02-01T11:09:29.000Z,52.79
2023-02-01T11:10:41.657Z,52.29
2023-02-01T11:11:49.408Z,52.43
2023-02-01T11:12:55.296Z,51.81
2023-02-01T11:14:02.293Z,52.34
2023-02-01T11:15:24.467Z,51.85
2023-02-01T11:16:35.886Z,52.93
2023-02-01T11:17:43.224Z,52.11
2023-02-01T11:18:44.820Z,51.99
2023-02-01T11:19:47.249Z,51.89
2023-02-01T11:20:50.378Z,51.67
2023-02-01T11:21:53.704Z,52.53
2023-02-01T11:22:57.115Z,52.05
2023-02-01T11:24:06.352Z,52.83
2023-02-01T11:25:11.971Z,51.56
2023-02-01T11:26:26.355Z,50.98
2023-02-01T11:27:28.745Z,51.97
2023-02-01T11:28:33.659Z,51.69
2023-02-01T11:29:42.217Z,50.40
2023-02-01T11:30:46.696Z,50.40
2023-02-01T11:31:48.737Z,50.90
2023-02-01T11:32:51.692Z,50.95
2023-02-01T11:34:07.651Z,50.48
2023-02-01T11:35:17.585Z,49.85
2023-02-01T11:36:26.309Z,50.52
2023-02-01T11:37:42.218Z,49.46
2023-02-01T11:39:09.710Z,50.82
2023-02-01T11:40:17.230Z,49.57
2023-02-01T11:41:25.483Z,49.24
2023-02-01T11:42:29.276Z,49.40
2023-02-01T11:43:30.879Z,49.38
2023-02-01T11:44:37.194Z,48.93
2023-02-01T11:45:38.911Z,49.96
2023-02-01T11:46:40.509Z,49.37
2023-02-01T11:47:42.540Z,49.77
2023-02-01T11:48:44.607Z,50.21
2023-02-01T11:49:47.721Z,50.57
2023-02-01T11:51:12.758Z,49.84
2023-02-01T11:52:30.491Z,50.24
2023-02-01T11:53:53.067Z,50.73
2023-02-01T11:55:18.087Z,50.94
2023-02-01T11:56:56.711Z,50.53
2023-02-01T11:58:17.199Z,51.25
2023-02-01T11:59:39.057Z,51.68
2023-02-01T12:01:18.714Z,51.69
2023-02-01T12:02:20.555Z,51.33
2023-02-01T12:03:35.817Z,50.86
2023-02-01T12:04:46.242Z,50.96
2023-02-01T12:06:13.665Z,51.16
2023-02-01T12:07:19.955Z,51.21
2023-02-01T12:08:42.406Z,51.63
2023-02-01T12:09:55.990Z,50.25
2023-02-01T12:11:15.875Z,50.77
2023-02-01T12:12:23.078Z,50.91
2023-02-01T12:13:31.092Z,50.66
2023-02-01T12:15:00.187Z,51.01
2023-02-01T12:16:18.720Z,50.08
2023-02-01T12:17:45.014Z,49.25
2023-02-01T12:19:04.763Z,49.95
2023-02-01T12:20:22.249Z,49.88
2023-02-01T12:21:32.318Z,50.46
2023-02-01T12:22:48.045Z,50.05
2023-02-01T12:24:06.608Z,48.97
2023-02-01T12:25:23.199Z,49.08
2023-02-01T12:26:44.066Z,49.66
2023-02-01T12:27:58.016Z,48.88
2023-02-01T12:29:09.587Z,49.14
2023-02-01T12:30:11.389Z,48.51
2023-02-01T12:31:15.987Z,49.50
2023-02-01T12:32:30.592Z,49.28
2023-02-01T12:34:07.717Z,48.77
2023-02-01T12:35:39.153Z,49.45
2023-02-01T12:36:59.008Z,47.80
2023-02-01T12:38:19.420Z,48.80
2023-02-01T12:39:32.260Z,49.34
2023-02-01T12:40:51.856Z,49.16
2023-02-01T12:42:02.407Z,49.11
2023-02-01T12:43:11.268Z,49.28
2023-02-01T12:44:53.113Z,49.15
2023-02-01T12:46:07.966Z,49.15
2023-02-01T12:47:23.951Z,49.60
2023-02-01T12:48:31.282Z,48.07
2023-02-01T12:49:54.222Z,48.71
2023-02-01T12:51:00.671Z,48.49
2023-02-01T12:52:11.043Z,48.38
2023-02-01T12:53:27.129Z,47.38
2023-02-01T12:54:48.222Z,47.40
2023-02-01T12:55:58.077Z,47.51
2023-02-01T12:57:12.310Z,48.12
2023-02-01T12:58:18.997Z,47.20
2023-02-01T12:59:28.047Z,48.80
2023-02-01T13:00:36.341Z,48.20
2023-02-01T13:01:41.966Z,47.49
2023-02-01T13:02:57.871Z,47.66
2023-02-01T13:04:21.406Z,47.60
2023-02-01T13:05:31.000Z,48.05
2023-02-01T13:06:44.626Z,49.40
2023-02-01T13:07:52.859Z,49.08
2023-02-01T13:09:24.578Z,47.12
2023-02-01T13:10:26.339Z,47.26
2023-02-01T13:11:43.515Z,47.67
2023-02-01T13:13:11.989Z,48.64
2023-02-01T13:14:38.270Z,48.74
2023-02-01T13:15:45.023Z,48.45
2023-02-01T13:16:50.374Z,47.60
2023-02-01T13:17:54.686Z,47.76
2023-02-01T13:19:06.260Z,48.54
2023-02-01T13:20:25.327Z,47.47
2023-02-01T13:21:32.419Z,48.40
2023-02-01T13:22:44.877Z,47.97
2023-02-01T13:23:48.779Z,47.28
2023-02-01T13:25:01.819Z,47.54
2023-02-01T13:26:03.900Z,48.35
2023-02-01T13:27:06.126Z,47.52
2023-02-01T13:28:16.070Z,47.90
2023-02-01T13:29:21.892Z,47.88
2023-02-01T13:30:31.565Z,47.64
2023-02-01T13:31:56.029Z,47.44
2023-02-01T13:33:53.692Z,48.16
2023-02-01T13:35:06.084Z,47.91
2023-02-01T13:36:31.654Z,48.62
2023-02-01T13:38:11.132Z,48.09
2023-02-01T13:39:21.969Z,46.66
2023-02-01T13:40:23.551Z,46.86
2023-02-01T13:41:28.993Z,47.17
2023-02-01T13:42:35.940Z,47.50
2023-02-01T13:43:40.127Z,48.06
2023-02-01T13:44:57.569Z,47.94
2023-02-01T13:46:07.462Z,47.83
2023-02-01T13:47:26.521Z,47.88
2023-02-01T13:48:50.541Z,48.09
2023-02-01T13:49:54.884Z,47.81
2023-02-01T13:50:59.670Z,46.72
2023-02-01T13:52:01.397Z,46.54
2023-02-01T13:53:17.868Z,46.93
2023-02-01T13:54:33.540Z,46.75
2023-02-01T13:55:40.740Z,46.70
2023-02-01T13:56:44.791Z,46.94
2023-02-01T13:57:49.205Z,46.75
2023-02-01T13:58:52.439Z,46.80
2023-02-01T13:59:55.870Z,47.70
2023-02-01T14:01:22.135Z,48.21
2023-02-01T14:02:51.259Z,47.69
2023-02-01T14:03:54.928Z,48.16
2023-02-01T14:04:57.537Z,48.48
2023-02-01T14:06:01.649Z,47.61
2023-02-01T14:07:03.271Z,48.08
2023-02-01T14:08:07.654Z,48.26
2023-02-01T14:09:09.270Z,48.63
2023-02-01T14:10:48.784Z,47.90
2023-02-01T14:11:56.998Z,47.99
2023-02-01T14:13:06.369Z,48.29
2023-02-01T14:14:27.868Z,48.60
2023-02-01T14:15:29.585Z,48.47
2023-02-01T14:16:31.200Z,48.18
2023-02-01T14:17:36.043Z,48.07
2023-02-01T14:18:38.223Z,48.34
2023-02-01T14:19:39.873Z,47.87
2023-02-01T14:20:44.716Z,47.50
2023-02-01T14:21:57.785Z,47.48
2023-02-01T14:23:04.939Z,47.83
2023-02-01T14:24:28.542Z,47.30
2023-02-01T14:25:34.364Z,47.95
2023-02-01T14:26:35.956Z,47.95